sensor_id;sensor_type;location;lat;lon;timestamp;pressure;altitude;pressure_sealevel;temperature;humidity
42761;BME280;31672;47.638;19.026;2023-06-22T00:04:19;100342.06;;;21.35;100.00
42761;BME280;31672;47.638;19.026;2023-06-22T00:09:22;100313.31;;;21.23;100.00
42761;BME280;31672;47.638;19.026;2023-06-22T00:14:26;100312.06;;;21.14;100.00
42761;BME280;31672;47.638;19.026;2023-06-22T00:19:30;100308.78;;;21.11;100.00
42761;BME280;31672;47.638;19.026;2023-06-22T00:24:33;100299.84;;;20.99;100.00
42761;BME280;31672;47.638;19.026;2023-06-22T00:29:37;100299.72;;;20.94;100.00
42761;BME280;31672;47.638;19.026;2023-06-22T00:34:40;100292.28;;;20.90;100.00
42761;BME280;31672;47.638;19.026;2023-06-22T00:39:44;100289.94;;;20.81;100.00
42761;BME280;31672;47.638;19.026;2023-06-22T00:44:47;100297.91;;;20.76;100.00
42761;BME280;31672;47.638;19.026;2023-06-22T00:49:51;100288.63;;;20.72;100.00
42761;BME280;31672;47.638;19.026;2023-06-22T00:54:56;100311.63;;;20.75;100.00
42761;BME280;31672;47.638;19.026;2023-06-22T01:00:00;100312.81;;;20.67;100.00
42761;BME280;31672;47.638;19.026;2023-06-22T01:05:05;100325.47;;;20.67;100.00
42761;BME280;31672;47.638;19.026;2023-06-22T01:10:32;100308.66;;;20.53;100.00
42761;BME280;31672;47.638;19.026;2023-06-22T01:15:46;100314.75;;;20.48;100.00
42761;BME280;31672;47.638;19.026;2023-06-22T01:20:56;100313.09;;;20.47;100.00
42761;BME280;31672;47.638;19.026;2023-06-22T01:31:27;100312.22;;;20.35;100.00
42761;BME280;31672;47.638;19.026;2023-06-22T01:36:34;100314.38;;;20.26;100.00
42761;BME280;31672;47.638;19.026;2023-06-22T01:41:39;100322.13;;;20.23;100.00
42761;BME280;31672;47.638;19.026;2023-06-22T01:46:46;100314.22;;;20.10;100.00
42761;BME280;31672;47.638;19.026;2023-06-22T01:51:51;100325.44;;;20.07;100.00
42761;BME280;31672;47.638;19.026;2023-06-22T01:56:55;100329.66;;;20.02;100.00
42761;BME280;31672;47.638;19.026;2023-06-22T02:02:08;100334.31;;;19.95;100.00
42761;BME280;31672;47.638;19.026;2023-06-22T02:07:17;100331.44;;;19.90;100.00
42761;BME280;31672;47.638;19.026;2023-06-22T02:12:25;100332.06;;;19.92;100.00
42761;BME280;31672;47.638;19.026;2023-06-22T02:17:33;100340.97;;;19.93;100.00
42761;BME280;31672;47.638;19.026;2023-06-22T02:22:37;100325.31;;;19.83;100.00
42761;BME280;31672;47.638;19.026;2023-06-22T02:27:41;100332.81;;;19.81;100.00
42761;BME280;31672;47.638;19.026;2023-06-22T02:32:44;100345.91;;;19.77;100.00
42761;BME280;31672;47.638;19.026;2023-06-22T02:37:48;100337.75;;;19.66;100.00
42761;BME280;31672;47.638;19.026;2023-06-22T02:42:55;100340.53;;;19.59;100.00
42761;BME280;31672;47.638;19.026;2023-06-22T02:48:01;100333.28;;;19.53;100.00
42761;BME280;31672;47.638;19.026;2023-06-22T02:53:05;100356.31;;;19.56;100.00
42761;BME280;31672;47.638;19.026;2023-06-22T02:58:08;100352.63;;;19.50;100.00
42761;BME280;31672;47.638;19.026;2023-06-22T03:03:12;100346.41;;;19.49;100.00
42761;BME280;31672;47.638;19.026;2023-06-22T03:08:15;100348.41;;;19.54;100.00
42761;BME280;31672;47.638;19.026;2023-06-22T03:13:19;100343.66;;;19.56;100.00
42761;BME280;31672;47.638;19.026;2023-06-22T03:18:23;100335.56;;;19.56;100.00
42761;BME280;31672;47.638;19.026;2023-06-22T03:23:26;100345.53;;;19.56;100.00
42761;BME280;31672;47.638;19.026;2023-06-22T03:28:29;100345.53;;;19.56;100.00
42761;BME280;31672;47.638;19.026;2023-06-22T03:33:33;100338.03;;;19.58;100.00
42761;BME280;31672;47.638;19.026;2023-06-22T03:38:37;100345.25;;;19.64;100.00
42761;BME280;31672;47.638;19.026;2023-06-22T03:43:45;100347.03;;;19.70;100.00
42761;BME280;31672;47.638;19.026;2023-06-22T03:48:48;100348.91;;;19.69;100.00
42761;BME280;31672;47.638;19.026;2023-06-22T03:53:52;100347.47;;;19.67;100.00
42761;BME280;31672;47.638;19.026;2023-06-22T03:58:55;100349.50;;;19.71;100.00
42761;BME280;31672;47.638;19.026;2023-06-22T04:03:59;100350.78;;;19.69;100.00
42761;BME280;31672;47.638;19.026;2023-06-22T04:09:03;100355.06;;;19.76;100.00
42761;BME280;31672;47.638;19.026;2023-06-22T04:14:07;100362.41;;;19.88;100.00
42761;BME280;31672;47.638;19.026;2023-06-22T04:19:11;100349.66;;;19.95;100.00
42761;BME280;31672;47.638;19.026;2023-06-22T04:24:19;100354.22;;;20.13;100.00
42761;BME280;31672;47.638;19.026;2023-06-22T04:29:23;100358.63;;;20.25;100.00
42761;BME280;31672;47.638;19.026;2023-06-22T04:34:32;100360.69;;;20.42;100.00
42761;BME280;31672;47.638;19.026;2023-06-22T04:39:35;100365.59;;;20.51;100.00
42761;BME280;31672;47.638;19.026;2023-06-22T04:44:39;100372.53;;;20.59;100.00
42761;BME280;31672;47.638;19.026;2023-06-22T04:49:45;100369.75;;;20.66;100.00
42761;BME280;31672;47.638;19.026;2023-06-22T04:54:49;100360.13;;;20.70;100.00
42761;BME280;31672;47.638;19.026;2023-06-22T05:00:02;100365.91;;;20.85;100.00
42761;BME280;31672;47.638;19.026;2023-06-22T05:05:16;100369.94;;;20.94;100.00
42761;BME280;31672;47.638;19.026;2023-06-22T05:10:20;100365.84;;;21.03;100.00
42761;BME280;31672;47.638;19.026;2023-06-22T05:15:23;100371.50;;;21.14;100.00
42761;BME280;31672;47.638;19.026;2023-06-22T05:20:31;100379.78;;;21.30;100.00
42761;BME280;31672;47.638;19.026;2023-06-22T05:25:34;100380.25;;;21.39;100.00
42761;BME280;31672;47.638;19.026;2023-06-22T05:30:38;100387.06;;;21.53;100.00
42761;BME280;31672;47.638;19.026;2023-06-22T05:35:42;100384.47;;;21.70;100.00
42761;BME280;31672;47.638;19.026;2023-06-22T05:40:46;100391.41;;;21.89;100.00
42761;BME280;31672;47.638;19.026;2023-06-22T05:45:49;100393.13;;;22.19;100.00
42761;BME280;31672;47.638;19.026;2023-06-22T05:50:53;100395.53;;;22.44;100.00
42761;BME280;31672;47.638;19.026;2023-06-22T05:55:57;100392.63;;;22.62;99.99
42761;BME280;31672;47.638;19.026;2023-06-22T06:01:01;100394.41;;;22.85;98.75
42761;BME280;31672;47.638;19.026;2023-06-22T06:06:04;100399.63;;;23.04;96.66
42761;BME280;31672;47.638;19.026;2023-06-22T06:11:08;100389.75;;;23.14;92.75
42761;BME280;31672;47.638;19.026;2023-06-22T06:16:12;100389.44;;;23.28;90.09
42761;BME280;31672;47.638;19.026;2023-06-22T06:21:16;100400.44;;;23.55;88.70
42761;BME280;31672;47.638;19.026;2023-06-22T06:26:20;100385.78;;;23.72;86.15
42761;BME280;31672;47.638;19.026;2023-06-22T06:31:31;100382.22;;;23.89;87.52
42761;BME280;31672;47.638;19.026;2023-06-22T06:36:34;100391.78;;;24.13;86.93
42761;BME280;31672;47.638;19.026;2023-06-22T06:41:38;100382.16;;;24.27;84.56
42761;BME280;31672;47.638;19.026;2023-06-22T06:46:41;100379.19;;;24.51;83.72
42761;BME280;31672;47.638;19.026;2023-06-22T06:51:46;100379.97;;;24.73;81.57
42761;BME280;31672;47.638;19.026;2023-06-22T06:56:49;100370.41;;;24.98;80.11
42761;BME280;31672;47.638;19.026;2023-06-22T07:01:53;100382.28;;;25.19;78.48
42761;BME280;31672;47.638;19.026;2023-06-22T07:07:01;100376.47;;;25.37;78.52
42761;BME280;31672;47.638;19.026;2023-06-22T07:12:06;100367.06;;;25.60;78.44
42761;BME280;31672;47.638;19.026;2023-06-22T07:17:09;100371.66;;;25.92;75.67
42761;BME280;31672;47.638;19.026;2023-06-22T07:22:13;100355.38;;;26.07;70.60
42761;BME280;31672;47.638;19.026;2023-06-22T07:27:17;100375.88;;;26.30;68.78
42761;BME280;31672;47.638;19.026;2023-06-22T07:32:22;100377.31;;;26.42;67.67
42761;BME280;31672;47.638;19.026;2023-06-22T07:37:26;100380.09;;;26.68;66.59
42761;BME280;31672;47.638;19.026;2023-06-22T07:42:32;100359.13;;;26.84;63.78
42761;BME280;31672;47.638;19.026;2023-06-22T07:47:38;100359.97;;;27.00;64.13
42761;BME280;31672;47.638;19.026;2023-06-22T07:52:41;100372.50;;;27.11;62.00
42761;BME280;31672;47.638;19.026;2023-06-22T07:57:49;100366.00;;;27.17;59.32
42761;BME280;31672;47.638;19.026;2023-06-22T08:02:55;100358.63;;;27.17;60.08
42761;BME280;31672;47.638;19.026;2023-06-22T08:07:59;100348.50;;;27.33;59.17
42761;BME280;31672;47.638;19.026;2023-06-22T08:13:03;100343.03;;;27.43;60.30
42761;BME280;31672;47.638;19.026;2023-06-22T08:18:07;100340.28;;;27.48;58.83
42761;BME280;31672;47.638;19.026;2023-06-22T08:23:10;100340.78;;;27.66;58.85
42761;BME280;31672;47.638;19.026;2023-06-22T08:28:14;100345.66;;;27.84;57.62
42761;BME280;31672;47.638;19.026;2023-06-22T08:33:17;100346.44;;;27.95;54.01
42761;BME280;31672;47.638;19.026;2023-06-22T08:38:30;100345.03;;;28.03;53.82
42761;BME280;31672;47.638;19.026;2023-06-22T08:43:33;100339.88;;;27.96;54.63
42761;BME280;31672;47.638;19.026;2023-06-22T08:48:37;100335.19;;;28.07;54.43
42761;BME280;31672;47.638;19.026;2023-06-22T08:53:41;100335.16;;;28.12;54.27
42761;BME280;31672;47.638;19.026;2023-06-22T08:58:44;100334.28;;;28.32;54.81
42761;BME280;31672;47.638;19.026;2023-06-22T09:03:48;100313.47;;;28.36;54.78
42761;BME280;31672;47.638;19.026;2023-06-22T09:08:59;100311.44;;;28.57;54.53
42761;BME280;31672;47.638;19.026;2023-06-22T09:14:03;100310.50;;;28.66;54.82
42761;BME280;31672;47.638;19.026;2023-06-22T09:19:07;100306.25;;;28.84;54.94
42761;BME280;31672;47.638;19.026;2023-06-22T09:24:10;100305.28;;;29.09;53.64
42761;BME280;31672;47.638;19.026;2023-06-22T09:29:14;100294.41;;;29.28;53.38
42761;BME280;31672;47.638;19.026;2023-06-22T09:34:17;100308.69;;;29.49;53.14
42761;BME280;31672;47.638;19.026;2023-06-22T09:39:23;100286.78;;;29.49;51.66
42761;BME280;31672;47.638;19.026;2023-06-22T09:44:26;100294.84;;;29.64;51.83
42761;BME280;31672;47.638;19.026;2023-06-22T09:49:33;100294.88;;;29.83;52.56
42761;BME280;31672;47.638;19.026;2023-06-22T09:54:50;100283.50;;;29.95;51.69
42761;BME280;31672;47.638;19.026;2023-06-22T09:59:54;100286.31;;;30.08;51.40
42761;BME280;31672;47.638;19.026;2023-06-22T10:04:57;100283.25;;;30.15;49.33
42761;BME280;31672;47.638;19.026;2023-06-22T10:10:02;100285.47;;;30.13;48.37
42761;BME280;31672;47.638;19.026;2023-06-22T10:15:06;100282.88;;;30.22;49.85
42761;BME280;31672;47.638;19.026;2023-06-22T10:20:11;100282.16;;;30.35;49.01
42761;BME280;31672;47.638;19.026;2023-06-22T10:25:15;100273.81;;;30.40;49.04
42761;BME280;31672;47.638;19.026;2023-06-22T10:30:18;100278.38;;;30.63;49.26
42761;BME280;31672;47.638;19.026;2023-06-22T10:35:22;100283.56;;;30.84;49.47
42761;BME280;31672;47.638;19.026;2023-06-22T10:40:26;100273.84;;;31.05;48.75
42761;BME280;31672;47.638;19.026;2023-06-22T10:45:29;100261.06;;;31.14;46.24
42761;BME280;31672;47.638;19.026;2023-06-22T10:50:33;100265.13;;;31.17;46.45
42761;BME280;31672;47.638;19.026;2023-06-22T10:55:37;100270.53;;;31.22;47.13
42761;BME280;31672;47.638;19.026;2023-06-22T11:00:59;100266.28;;;31.30;46.28
42761;BME280;31672;47.638;19.026;2023-06-22T11:06:03;100264.66;;;31.42;45.09
42761;BME280;31672;47.638;19.026;2023-06-22T11:11:06;100261.53;;;31.49;43.84
42761;BME280;31672;47.638;19.026;2023-06-22T11:16:10;100254.06;;;31.63;43.41
42761;BME280;31672;47.638;19.026;2023-06-22T11:21:14;100261.47;;;31.77;44.52
42761;BME280;31672;47.638;19.026;2023-06-22T11:26:17;100256.63;;;31.87;44.15
42761;BME280;31672;47.638;19.026;2023-06-22T11:31:21;100243.34;;;32.03;43.30
42761;BME280;31672;47.638;19.026;2023-06-22T11:36:29;100252.09;;;32.05;44.50
42761;BME280;31672;47.638;19.026;2023-06-22T11:41:36;100240.88;;;32.15;44.31
42761;BME280;31672;47.638;19.026;2023-06-22T11:46:40;100242.09;;;32.32;43.89
42761;BME280;31672;47.638;19.026;2023-06-22T11:51:43;100237.69;;;32.44;43.20
42761;BME280;31672;47.638;19.026;2023-06-22T11:56:46;100240.06;;;32.60;43.18
42761;BME280;31672;47.638;19.026;2023-06-22T12:01:50;100233.50;;;32.69;42.51
42761;BME280;31672;47.638;19.026;2023-06-22T12:06:54;100223.78;;;32.63;41.78
42761;BME280;31672;47.638;19.026;2023-06-22T12:11:58;100227.50;;;32.67;43.07
42761;BME280;31672;47.638;19.026;2023-06-22T12:17:01;100223.59;;;32.91;42.32
42761;BME280;31672;47.638;19.026;2023-06-22T12:22:05;100209.94;;;33.08;42.00
42761;BME280;31672;47.638;19.026;2023-06-22T12:27:09;100192.81;;;33.28;42.85
42761;BME280;31672;47.638;19.026;2023-06-22T12:32:14;100197.63;;;33.54;41.46
42761;BME280;31672;47.638;19.026;2023-06-22T12:37:17;100188.56;;;33.79;40.84
42761;BME280;31672;47.638;19.026;2023-06-22T12:42:21;100187.59;;;34.27;39.76
42761;BME280;31672;47.638;19.026;2023-06-22T12:47:25;100184.78;;;34.71;39.22
42761;BME280;31672;47.638;19.026;2023-06-22T12:52:30;100185.94;;;35.08;36.72
42761;BME280;31672;47.638;19.026;2023-06-22T12:57:37;100173.59;;;35.44;36.22
42761;BME280;31672;47.638;19.026;2023-06-22T13:02:40;100175.09;;;35.32;36.12
42761;BME280;31672;47.638;19.026;2023-06-22T13:07:45;100172.56;;;35.19;36.29
42761;BME280;31672;47.638;19.026;2023-06-22T13:12:49;100172.34;;;35.03;35.78
42761;BME280;31672;47.638;19.026;2023-06-22T13:17:54;100155.38;;;34.75;36.74
42761;BME280;31672;47.638;19.026;2023-06-22T13:22:58;100156.91;;;34.55;36.57
42761;BME280;31672;47.638;19.026;2023-06-22T13:28:02;100157.09;;;34.50;37.57
42761;BME280;31672;47.638;19.026;2023-06-22T13:33:10;100155.13;;;34.42;36.25
42761;BME280;31672;47.638;19.026;2023-06-22T13:38:13;100146.66;;;34.64;37.02
42761;BME280;31672;47.638;19.026;2023-06-22T13:43:17;100145.56;;;34.95;36.93
42761;BME280;31672;47.638;19.026;2023-06-22T13:48:20;100134.72;;;35.19;36.83
42761;BME280;31672;47.638;19.026;2023-06-22T13:53:26;100137.63;;;35.52;36.06
42761;BME280;31672;47.638;19.026;2023-06-22T13:58:30;100128.16;;;35.74;35.57
42761;BME280;31672;47.638;19.026;2023-06-22T14:03:33;100136.00;;;35.72;34.36
42761;BME280;31672;47.638;19.026;2023-06-22T14:08:37;100122.69;;;35.45;35.08
42761;BME280;31672;47.638;19.026;2023-06-22T14:13:44;100125.84;;;35.34;34.92
42761;BME280;31672;47.638;19.026;2023-06-22T14:18:48;100111.34;;;35.17;35.46
42761;BME280;31672;47.638;19.026;2023-06-22T14:23:52;100117.16;;;34.94;35.68
42761;BME280;31672;47.638;19.026;2023-06-22T14:28:56;100099.84;;;34.76;36.89
42761;BME280;31672;47.638;19.026;2023-06-22T14:34:01;100102.06;;;34.92;37.63
42761;BME280;31672;47.638;19.026;2023-06-22T14:39:06;100101.06;;;34.96;36.81
42761;BME280;31672;47.638;19.026;2023-06-22T14:44:10;100097.50;;;34.96;36.20
42761;BME280;31672;47.638;19.026;2023-06-22T14:49:14;100091.91;;;34.75;36.45
42761;BME280;31672;47.638;19.026;2023-06-22T14:54:17;100089.53;;;34.94;36.93
42761;BME280;31672;47.638;19.026;2023-06-22T14:59:21;100092.81;;;35.17;37.01
42761;BME280;31672;47.638;19.026;2023-06-22T15:04:25;100074.13;;;35.44;36.32
42761;BME280;31672;47.638;19.026;2023-06-22T15:09:34;100078.09;;;35.76;34.97
42761;BME280;31672;47.638;19.026;2023-06-22T15:14:40;100056.28;;;35.74;35.37
42761;BME280;31672;47.638;19.026;2023-06-22T15:19:44;100069.25;;;35.82;34.90
42761;BME280;31672;47.638;19.026;2023-06-22T15:24:47;100056.00;;;35.55;35.07
42761;BME280;31672;47.638;19.026;2023-06-22T15:29:51;100061.78;;;35.41;35.40
42761;BME280;31672;47.638;19.026;2023-06-22T15:34:55;100062.16;;;35.31;35.58
42761;BME280;31672;47.638;19.026;2023-06-22T15:39:58;100052.28;;;35.30;36.35
42761;BME280;31672;47.638;19.026;2023-06-22T15:45:03;100059.28;;;35.27;36.14
42761;BME280;31672;47.638;19.026;2023-06-22T15:50:07;100064.22;;;35.43;35.62
42761;BME280;31672;47.638;19.026;2023-06-22T15:55:14;100064.28;;;35.55;35.91
42761;BME280;31672;47.638;19.026;2023-06-22T16:00:19;100059.81;;;35.62;35.32
42761;BME280;31672;47.638;19.026;2023-06-22T16:05:22;100050.41;;;35.63;35.64
42761;BME280;31672;47.638;19.026;2023-06-22T16:10:26;100051.66;;;35.66;35.42
42761;BME280;31672;47.638;19.026;2023-06-22T16:15:30;100052.25;;;35.72;35.95
42761;BME280;31672;47.638;19.026;2023-06-22T16:20:34;100056.28;;;35.74;35.88
42761;BME280;31672;47.638;19.026;2023-06-22T16:25:37;100048.66;;;35.59;35.12
42761;BME280;31672;47.638;19.026;2023-06-22T16:30:41;100043.09;;;35.38;35.97
42761;BME280;31672;47.638;19.026;2023-06-22T16:35:45;100047.69;;;35.13;36.31
42761;BME280;31672;47.638;19.026;2023-06-22T16:40:48;100056.44;;;34.85;36.66
42761;BME280;31672;47.638;19.026;2023-06-22T16:45:52;100038.63;;;34.45;37.23
42761;BME280;31672;47.638;19.026;2023-06-22T16:50:56;100037.53;;;34.28;37.28
42761;BME280;31672;47.638;19.026;2023-06-22T16:56:00;100044.25;;;34.19;38.98
42761;BME280;31672;47.638;19.026;2023-06-22T17:01:07;100033.41;;;33.88;38.60
42761;BME280;31672;47.638;19.026;2023-06-22T17:06:14;100034.94;;;33.59;41.01
42761;BME280;31672;47.638;19.026;2023-06-22T17:11:19;100042.66;;;33.31;41.87
42761;BME280;31672;47.638;19.026;2023-06-22T17:16:23;100035.31;;;32.92;42.95
42761;BME280;31672;47.638;19.026;2023-06-22T17:21:27;100050.41;;;32.55;44.62
42761;BME280;31672;47.638;19.026;2023-06-22T17:26:33;100035.44;;;32.07;45.84
42761;BME280;31672;47.638;19.026;2023-06-22T17:31:41;100035.72;;;31.75;47.10
42761;BME280;31672;47.638;19.026;2023-06-22T17:36:50;100028.72;;;31.46;48.49
42761;BME280;31672;47.638;19.026;2023-06-22T17:41:54;100028.97;;;31.22;49.67
42761;BME280;31672;47.638;19.026;2023-06-22T17:46:58;100030.34;;;30.97;50.02
42761;BME280;31672;47.638;19.026;2023-06-22T17:52:02;100027.53;;;30.75;51.07
42761;BME280;31672;47.638;19.026;2023-06-22T17:57:16;100011.66;;;30.58;52.38
42761;BME280;31672;47.638;19.026;2023-06-22T18:02:25;100026.00;;;30.41;53.03
42761;BME280;31672;47.638;19.026;2023-06-22T18:07:29;100027.19;;;30.21;53.39
42761;BME280;31672;47.638;19.026;2023-06-22T18:12:36;100031.06;;;30.01;54.42
42761;BME280;31672;47.638;19.026;2023-06-22T18:17:41;100028.69;;;29.81;56.48
42761;BME280;31672;47.638;19.026;2023-06-22T18:22:47;100030.72;;;29.56;57.07
42761;BME280;31672;47.638;19.026;2023-06-22T18:27:51;100033.16;;;29.39;58.63
42761;BME280;31672;47.638;19.026;2023-06-22T18:32:56;100022.00;;;29.17;59.00
42761;BME280;31672;47.638;19.026;2023-06-22T18:38:02;100028.84;;;28.95;60.54
42761;BME280;31672;47.638;19.026;2023-06-22T18:43:07;100037.06;;;28.71;61.03
42761;BME280;31672;47.638;19.026;2023-06-22T18:48:11;100057.25;;;28.51;60.50
42761;BME280;31672;47.638;19.026;2023-06-22T18:53:25;100059.13;;;28.27;61.50
42761;BME280;31672;47.638;19.026;2023-06-22T18:58:29;100060.34;;;28.11;62.40
42761;BME280;31672;47.638;19.026;2023-06-22T19:03:35;100074.72;;;27.92;63.38
42761;BME280;31672;47.638;19.026;2023-06-22T19:09:14;100074.59;;;27.68;64.00
42761;BME280;31672;47.638;19.026;2023-06-22T19:14:22;100071.72;;;27.50;64.63
42761;BME280;31672;47.638;19.026;2023-06-22T19:19:26;100080.25;;;27.38;65.19
42761;BME280;31672;47.638;19.026;2023-06-22T19:24:31;100095.94;;;27.17;66.72
42761;BME280;31672;47.638;19.026;2023-06-22T19:29:34;100095.16;;;26.96;68.04
42761;BME280;31672;47.638;19.026;2023-06-22T19:34:45;100095.50;;;26.79;68.57
42761;BME280;31672;47.638;19.026;2023-06-22T19:39:51;100111.91;;;26.69;69.42
42761;BME280;31672;47.638;19.026;2023-06-22T19:44:58;100095.59;;;26.44;70.97
42761;BME280;31672;47.638;19.026;2023-06-22T19:50:04;100112.19;;;26.32;71.57
42761;BME280;31672;47.638;19.026;2023-06-22T19:55:10;100111.66;;;26.14;72.50
42761;BME280;31672;47.638;19.026;2023-06-22T20:00:21;100115.50;;;26.03;73.66
42761;BME280;31672;47.638;19.026;2023-06-22T20:05:25;100112.47;;;25.84;74.07
42761;BME280;31672;47.638;19.026;2023-06-22T20:10:29;100125.53;;;25.77;74.98
42761;BME280;31672;47.638;19.026;2023-06-22T20:15:45;100124.38;;;25.63;76.75
42761;BME280;31672;47.638;19.026;2023-06-22T20:20:49;100116.75;;;25.50;77.30
42761;BME280;31672;47.638;19.026;2023-06-22T20:25:53;100106.09;;;25.33;77.87
42761;BME280;31672;47.638;19.026;2023-06-22T20:31:09;100104.94;;;25.24;78.96
42761;BME280;31672;47.638;19.026;2023-06-22T20:36:15;100112.28;;;25.13;79.43
42761;BME280;31672;47.638;19.026;2023-06-22T20:41:21;100113.00;;;25.03;79.70
42761;BME280;31672;47.638;19.026;2023-06-22T20:46:25;100107.00;;;24.96;80.13
42761;BME280;31672;47.638;19.026;2023-06-22T20:51:34;100092.84;;;24.89;80.71
42761;BME280;31672;47.638;19.026;2023-06-22T20:56:38;100092.56;;;24.91;81.80
42761;BME280;31672;47.638;19.026;2023-06-22T21:01:44;100085.75;;;24.83;82.39
42761;BME280;31672;47.638;19.026;2023-06-22T21:12:01;100104.41;;;24.69;83.69
42761;BME280;31672;47.638;19.026;2023-06-22T21:17:05;100104.38;;;24.64;84.33
42761;BME280;31672;47.638;19.026;2023-06-22T21:22:08;100112.47;;;24.54;85.14
42761;BME280;31672;47.638;19.026;2023-06-22T21:27:12;100108.59;;;24.45;85.69
42761;BME280;31672;47.638;19.026;2023-06-22T21:32:16;100113.19;;;24.39;86.30
42761;BME280;31672;47.638;19.026;2023-06-22T21:37:20;100115.28;;;24.32;86.13
42761;BME280;31672;47.638;19.026;2023-06-22T21:42:24;100110.06;;;24.25;87.21
42761;BME280;31672;47.638;19.026;2023-06-22T21:47:30;100100.81;;;24.21;87.78
42761;BME280;31672;47.638;19.026;2023-06-22T21:52:34;100090.16;;;24.15;87.80
42761;BME280;31672;47.638;19.026;2023-06-22T21:57:37;100090.38;;;24.08;89.50
42761;BME280;31672;47.638;19.026;2023-06-22T22:02:41;100091.44;;;24.02;90.56
42761;BME280;31672;47.638;19.026;2023-06-22T22:07:44;100087.03;;;23.96;90.82
42761;BME280;31672;47.638;19.026;2023-06-22T22:12:48;100073.41;;;23.91;91.34
42761;BME280;31672;47.638;19.026;2023-06-22T22:17:53;100077.72;;;23.87;91.74
42761;BME280;31672;47.638;19.026;2023-06-22T22:22:58;100068.97;;;23.80;92.45
42761;BME280;31672;47.638;19.026;2023-06-22T22:28:02;100069.50;;;23.76;92.78
42761;BME280;31672;47.638;19.026;2023-06-22T22:33:06;100066.38;;;23.63;94.01
42761;BME280;31672;47.638;19.026;2023-06-22T22:38:13;100064.66;;;23.57;94.28
42761;BME280;31672;47.638;19.026;2023-06-22T22:43:16;100061.66;;;23.53;94.46
42761;BME280;31672;47.638;19.026;2023-06-22T22:48:20;100044.50;;;23.47;95.22
42761;BME280;31672;47.638;19.026;2023-06-22T22:53:23;100029.81;;;23.43;95.54
42761;BME280;31672;47.638;19.026;2023-06-22T22:58:28;100010.50;;;23.35;96.55
42761;BME280;31672;47.638;19.026;2023-06-22T23:03:31;99998.84;;;23.34;96.64
42761;BME280;31672;47.638;19.026;2023-06-22T23:08:35;100006.91;;;23.29;97.47
42761;BME280;31672;47.638;19.026;2023-06-22T23:13:39;100006.53;;;23.15;98.59
42761;BME280;31672;47.638;19.026;2023-06-22T23:18:44;99996.69;;;23.09;99.22
42761;BME280;31672;47.638;19.026;2023-06-22T23:23:48;99993.41;;;23.07;98.69
42761;BME280;31672;47.638;19.026;2023-06-22T23:28:51;100007.78;;;23.08;99.03
42761;BME280;31672;47.638;19.026;2023-06-22T23:33:55;99994.47;;;23.06;99.27
42761;BME280;31672;47.638;19.026;2023-06-22T23:38:58;99984.47;;;23.07;99.27
42761;BME280;31672;47.638;19.026;2023-06-22T23:44:02;99981.50;;;23.08;99.43
42761;BME280;31672;47.638;19.026;2023-06-22T23:49:07;99970.91;;;23.07;99.46
42761;BME280;31672;47.638;19.026;2023-06-22T23:54:11;99958.94;;;23.03;99.76
42761;BME280;31672;47.638;19.026;2023-06-22T23:59:14;99961.34;;;22.99;99.53
